Time,TemperatureF,DewpointF,PressureIn,WindDirection,WindDirectionDegrees,WindSpeedMPH,WindSpeedGustMPH,Humidity,HourlyPrecipIn,Conditions,Clouds,dailyrainin,SoftwareType,DateUTC
2013-01-01 00:00:00,33.2,27.1,30.06,WNW,284,4.0,4.0,78,0.00,,---,0.00,VWS V14.01,2013-01-01 05:00:00,
2013-01-01 00:01:00,33.2,27.1,30.06,SSW,213,2.0,5.0,78,0.00,,---,0.00,VWS V14.01,2013-01-01 05:01:00,
2013-01-01 00:06:00,33.3,27.2,30.06,SW,233,9.0,10.0,78,0.00,,---,0.00,VWS V14.01,2013-01-01 05:06:00,
2013-01-01 00:10:00,33.4,27.3,30.06,SW,229,7.0,10.0,78,0.00,,---,0.00,VWS V14.01,2013-01-01 05:10:00,
2013-01-01 00:11:00,33.4,27.0,30.06,SW,226,4.0,7.0,77,0.00,,---,0.00,VWS V14.01,2013-01-01 05:11:00,
2013-01-01 00:16:00,33.5,27.4,30.06,SW,218,3.0,7.0,78,0.00,,---,0.00,VWS V14.01,2013-01-01 05:16:00,
2013-01-01 00:20:00,33.5,27.4,30.06,SSW,207,3.0,9.0,78,0.00,,---,0.00,VWS V14.01,2013-01-01 05:20:00,
2013-01-01 00:21:00,33.5,27.4,30.06,WSW,240,6.0,8.0,78,0.00,,---,0.00,VWS V14.01,2013-01-01 05:21:00,
2013-01-01 00:26:00,33.4,27.3,30.06,SW,233,4.0,8.0,78,0.00,,---,0.00,VWS V14.01,2013-01-01 05:26:00,
2013-01-01 00:30:00,33.4,27.6,30.06,SSW,207,3.0,9.0,79,0.00,,---,0.00,VWS V14.01,2013-01-01 05:30:00,
2013-01-01 00:31:00,33.4,27.6,30.06,WSW,241,4.0,8.0,79,0.00,,---,0.00,VWS V14.01,2013-01-01 05:31:00,
2013-01-01 00:36:00,33.4,27.6,30.06,SW,236,3.0,9.0,79,0.00,,---,0.00,VWS V14.01,2013-01-01 05:36:00,
2013-01-01 00:40:00,33.5,27.7,30.06,SW,219,1.0,9.0,79,0.00,,---,0.00,VWS V14.01,2013-01-01 05:40:00,
2013-01-01 00:41:00,33.5,27.7,30.06,WSW,246,3.0,4.0,79,0.00,,---,0.00,VWS V14.01,2013-01-01 05:41:00,
2013-01-01 00:46:00,33.5,27.4,30.07,WSW,246,2.0,6.0,78,0.00,,---,0.00,VWS V14.01,2013-01-01 05:46:00,
2013-01-01 00:50:00,33.6,27.8,30.07,WNW,295,3.0,7.0,79,0.00,,---,0.00,VWS V14.01,2013-01-01 05:50:00,
2013-01-01 00:51:00,33.6,27.5,30.06,SW,226,7.0,9.0,78,0.00,,---,0.00,VWS V14.01,2013-01-01 05:51:00,
2013-01-01 07:30:00,31.7,30.2,30.03,SW,221,0.0,2.0,94,0.00,,---,0.00,VWS V14.01,2013-01-01 12:30:00,
2013-01-01 07:40:00,31.7,30.2,30.04,WSW,252,1.0,3.0,94,0.00,,---,0.00,VWS V14.01,2013-01-01 12:40:00,
2013-01-01 07:50:00,31.7,30.2,30.04,WSW,246,2.0,3.0,94,0.00,,---,0.00,VWS V14.01,2013-01-01 12:50:00,
2013-01-01 08:00:00,31.8,30.3,30.04,SSW,198,2.0,4.0,94,0.00,,---,0.00,VWS V14.01,2013-01-01 13:00:00,
2013-01-01 08:10:00,31.9,30.4,30.05,SSW,213,3.0,5.0,94,0.00,,---,0.00,VWS V14.01,2013-01-01 13:10:00,
2013-01-01 08:20:00,31.9,30.1,30.04,SW,226,1.0,5.0,93,0.00,,---,0.00,VWS V14.01,2013-01-01 13:20:00,
2013-01-01 08:28:00,31.6,30.1,30.03,WSW,248,0.0,0.0,94,0.00,,---,0.00,VWS V14.01,2013-01-01 13:28:00,
2013-01-01 08:30:00,32.0,30.2,30.04,WSW,252,2.0,5.0,93,0.00,,---,0.00,VWS V14.01,2013-01-01 13:30:00,
2013-01-01 08:33:00,31.6,30.1,30.03,SSW,205,0.0,3.0,94,0.00,,---,0.00,VWS V14.01,2013-01-01 13:33:00,
2013-01-01 08:38:00,31.7,30.2,30.03,WSW,253,0.0,3.0,94,0.00,,---,0.00,VWS V14.01,2013-01-01 13:38:00,
2013-01-01 08:40:00,32.1,30.3,30.04,SW,214,1.0,4.0,93,0.00,,---,0.00,VWS V14.01,2013-01-01 13:40:00,
2013-01-01 08:43:00,31.7,30.2,30.04,SW,214,1.0,3.0,94,0.00,,---,0.00,VWS V14.01,2013-01-01 13:43:00,
2013-01-01 08:48:00,31.7,30.2,30.04,WSW,256,1.0,3.0,94,0.00,,---,0.00,VWS V14.01,2013-01-01 13:48:00,
2013-01-01 08:50:00,32.2,30.4,30.04,SW,223,2.0,5.0,93,0.00,,---,0.00,VWS V14.01,2013-01-01 13:50:00,
2013-01-01 08:53:00,31.8,30.3,30.04,South,171,2.0,3.0,94,0.00,,---,0.00,VWS V14.01,2013-01-01 13:53:00,
2013-01-01 08:58:00,31.8,30.3,30.04,SW,218,1.0,4.0,94,0.00,,---,0.00,VWS V14.01,2013-01-01 13:58:00,
2013-01-01 09:00:00,32.3,30.5,30.04,West,259,0.0,7.0,93,0.00,,---,0.00,VWS V14.01,2013-01-01 14:00:00,
2013-01-01 09:03:00,31.8,30.3,30.04,WSW,238,2.0,4.0,94,0.00,,---,0.00,VWS V14.01,2013-01-01 14:03:00,
2013-01-01 09:08:00,31.9,30.4,30.05,SSW,210,3.0,4.0,94,0.00,,---,0.00,VWS V14.01,2013-01-01 14:08:00,
2013-01-01 09:10:00,32.5,30.7,30.04,SW,223,3.0,4.0,93,0.00,,---,0.00,VWS V14.01,2013-01-01 14:10:00,
2013-01-01 09:13:00,31.9,30.4,30.05,SW,222,1.0,5.0,94,0.00,,---,0.00,VWS V14.01,2013-01-01 14:13:00,
2013-01-01 09:18:00,31.9,30.1,30.04,SW,232,2.0,5.0,93,0.00,,---,0.00,VWS V14.01,2013-01-01 14:18:00,
2013-01-01 09:20:00,32.7,30.6,30.04,WSW,250,0.0,5.0,92,0.00,,---,0.00,VWS V14.01,2013-01-01 14:20:00,
2013-01-01 09:23:00,31.9,30.1,30.04,WSW,242,5.0,5.0,93,0.00,,---,0.00,VWS V14.01,2013-01-01 14:23:00,
2013-01-01 09:28:00,32.0,30.2,30.04,SSW,203,3.0,5.0,93,0.00,,---,0.00,VWS V14.01,2013-01-01 14:28:00,
2013-01-01 09:30:00,32.7,30.6,30.05,SW,230,0.0,6.0,92,0.00,,---,0.00,VWS V14.01,2013-01-01 14:30:00,
2013-01-01 09:33:00,32.1,30.3,30.04,SW,218,1.0,4.0,93,0.00,,---,0.00,VWS V14.01,2013-01-01 14:33:00,
2013-01-01 09:38:00,32.1,30.3,30.04,SW,234,3.0,4.0,93,0.00,,---,0.00,VWS V14.01,2013-01-01 14:38:00,
2013-01-01 09:40:00,32.7,30.6,30.05,West,261,0.0,5.0,92,0.00,,---,0.00,VWS V14.01,2013-01-01 14:40:00,
2013-01-01 09:43:00,32.2,30.4,30.04,SW,223,3.0,5.0,93,0.00,,---,0.00,VWS V14.01,2013-01-01 14:43:00,
2013-01-01 09:48:00,32.2,30.4,30.04,SW,226,2.0,5.0,93,0.00,,---,0.00,VWS V14.01,2013-01-01 14:48:00,
2013-01-01 09:50:00,32.7,30.6,30.06,SW,225,1.0,4.0,92,0.00,,---,0.00,VWS V14.01,2013-01-01 14:50:00,
2013-01-01 09:53:00,32.3,30.5,30.04,SW,220,1.0,5.0,93,0.00,,---,0.00,VWS V14.01,2013-01-01 14:53:00,
2013-01-01 09:58:00,32.3,30.5,30.04,SW,217,2.0,5.0,93,0.00,,---,0.00,VWS V14.01,2013-01-01 14:58:00,
2013-01-01 10:00:00,32.8,30.7,30.05,West,268,3.0,7.0,92,0.00,,---,0.00,VWS V14.01,2013-01-01 15:00:00,
2013-01-01 10:03:00,32.4,30.6,30.05,SW,232,1.0,4.0,93,0.00,,---,0.00,VWS V14.01,2013-01-01 15:03:00,
2013-01-01 10:08:00,32.5,30.7,30.04,SW,226,2.0,4.0,93,0.00,,---,0.00,VWS V14.01,2013-01-01 15:08:00,
2013-01-01 10:10:00,32.8,30.7,30.05,WSW,254,2.0,5.0,92,0.00,,---,0.00,VWS V14.01,2013-01-01 15:10:00,
2013-01-01 10:13:00,32.6,30.8,30.04,SW,225,2.0,4.0,93,0.00,,---,0.00,VWS V14.01,2013-01-01 15:13:00,
2013-01-01 10:18:00,32.7,30.6,30.04,SW,234,2.0,5.0,92,0.00,,---,0.00,VWS V14.01,2013-01-01 15:18:00,
2013-01-01 10:20:00,32.9,30.6,30.04,WSW,249,0.0,7.0,91,0.00,,---,0.00,VWS V14.01,2013-01-01 15:20:00,
2013-01-01 10:23:00,32.7,30.6,30.05,West,265,1.0,6.0,92,0.00,,---,0.00,VWS V14.01,2013-01-01 15:23:00,
2013-01-01 10:28:00,32.7,30.6,30.05,WSW,254,2.0,6.0,92,0.00,,---,0.00,VWS V14.01,2013-01-01 15:28:00,
2013-01-01 10:30:00,33.0,30.7,30.04,WSW,256,1.0,5.0,91,0.00,,---,0.00,VWS V14.01,2013-01-01 15:30:00,
2013-01-01 10:33:00,32.7,30.6,30.05,SW,223,2.0,5.0,92,0.00,,---,0.00,VWS V14.01,2013-01-01 15:33:00,
2013-01-01 10:39:00,32.7,30.6,30.05,SW,236,1.0,5.0,92,0.00,,---,0.00,VWS V14.01,2013-01-01 15:39:00,
2013-01-01 10:40:00,33.1,30.8,30.03,WNW,284,1.0,4.0,91,0.00,,---,0.00,VWS V14.01,2013-01-01 15:40:00,
2013-01-01 10:44:00,32.7,30.6,30.05,SW,232,1.0,4.0,92,0.00,,---,0.00,VWS V14.01,2013-01-01 15:44:00,
2013-01-01 10:48:00,32.7,30.6,30.06,SSW,211,0.0,4.0,92,0.00,,---,0.00,VWS V14.01,2013-01-01 15:48:00,
2013-01-01 10:50:00,33.1,30.5,30.02,WSW,253,0.0,3.0,90,0.00,,---,0.00,VWS V14.01,2013-01-01 15:50:00,
2013-01-01 10:53:00,32.8,30.7,30.05,WSW,254,0.0,4.0,92,0.00,,---,0.00,VWS V14.01,2013-01-01 15:53:00,
2013-01-01 10:59:00,32.8,30.7,30.05,WSW,249,4.0,5.0,92,0.00,,---,0.00,VWS V14.01,2013-01-01 15:59:00,
2013-01-01 11:00:00,33.1,30.5,30.01,WSW,253,0.0,1.0,90,0.00,,---,0.00,VWS V14.01,2013-01-01 16:00:00,
2013-01-01 11:04:00,32.8,30.7,30.05,WSW,240,1.0,4.0,92,0.00,,---,0.00,VWS V14.01,2013-01-01 16:04:00,
2013-01-01 11:09:00,32.8,30.7,30.05,WSW,254,3.0,5.0,92,0.00,,---,0.00,VWS V14.01,2013-01-01 16:09:00,
2013-01-01 11:10:00,33.1,30.5,30.00,West,261,0.0,5.0,90,0.00,,---,0.00,VWS V14.01,2013-01-01 16:10:00,
2013-01-01 11:14:00,32.9,30.6,30.04,WSW,257,1.0,7.0,91,0.00,,---,0.00,VWS V14.01,2013-01-01 16:14:00,
2013-01-01 11:19:00,32.9,30.6,30.04,WSW,238,1.0,7.0,91,0.00,,---,0.00,VWS V14.01,2013-01-01 16:19:00,
2013-01-01 11:20:00,33.1,30.2,30.00,West,260,2.0,5.0,89,0.00,,---,0.00,VWS V14.01,2013-01-01 16:20:00,
2013-01-01 11:24:00,32.9,30.6,30.04,WSW,248,3.0,4.0,91,0.00,,---,0.00,VWS V14.01,2013-01-01 16:24:00,
2013-01-01 11:29:00,33.0,30.7,30.04,WSW,250,1.0,5.0,91,0.00,,---,0.00,VWS V14.01,2013-01-01 16:29:00,
2013-01-01 11:30:00,33.1,30.2,29.99,NNW,347,0.0,4.0,89,0.00,,---,0.00,VWS V14.01,2013-01-01 16:30:00,
2013-01-01 11:34:00,33.0,30.7,30.03,WSW,257,0.0,4.0,91,0.00,,---,0.00,VWS V14.01,2013-01-01 16:34:00,
2013-01-01 11:39:00,33.0,30.7,30.03,WSW,252,0.0,4.0,91,0.00,,---,0.00,VWS V14.01,2013-01-01 16:39:00,
2013-01-01 11:40:00,33.1,29.9,30.00,WSW,249,2.0,5.0,88,0.00,,---,0.00,VWS V14.01,2013-01-01 16:40:00,
2013-01-01 11:44:00,33.0,30.4,30.02,SW,229,0.0,3.0,90,0.00,,---,0.00,VWS V14.01,2013-01-01 16:44:00,
2013-01-01 11:49:00,33.1,30.5,30.02,WSW,248,0.0,3.0,90,0.00,,---,0.00,VWS V14.01,2013-01-01 16:49:00,
2013-01-01 11:50:00,33.1,30.2,29.99,NE,53,0.0,4.0,89,0.00,,---,0.00,VWS V14.01,2013-01-01 16:50:00,
2013-01-01 11:54:00,33.1,30.5,30.01,WSW,245,0.0,1.0,90,0.00,,---,0.00,VWS V14.01,2013-01-01 16:54:00,
2013-01-01 11:59:00,33.1,30.5,30.01,WSW,253,0.0,1.0,90,0.00,,---,0.00,VWS V14.01,2013-01-01 16:59:00,
2013-01-01 12:00:00,33.2,30.0,29.99,WSW,240,3.0,4.0,88,0.01,,---,0.01,VWS V14.01,2013-01-01 17:00:00,
2013-01-01 12:04:00,33.1,30.5,30.01,SE,134,0.0,4.0,90,0.00,,---,0.00,VWS V14.01,2013-01-01 17:04:00,
2013-01-01 12:09:00,33.1,30.5,30.00,SW,229,0.0,5.0,90,0.00,,---,0.00,VWS V14.01,2013-01-01 17:09:00,
2013-01-01 12:10:00,33.4,30.2,29.99,WSW,250,0.0,4.0,88,0.01,,---,0.01,VWS V14.01,2013-01-01 17:10:00,
2013-01-01 12:14:00,33.2,30.6,30.01,WSW,253,0.0,1.0,90,0.00,,---,0.00,VWS V14.01,2013-01-01 17:14:00,
2013-01-01 12:19:00,33.1,30.2,30.00,SW,215,0.0,5.0,89,0.00,,---,0.00,VWS V14.01,2013-01-01 17:19:00,
2013-01-01 12:20:00,33.4,30.2,29.99,West,260,1.0,5.0,88,0.01,,---,0.01,VWS V14.01,2013-01-01 17:20:00,
2013-01-01 12:24:00,33.1,30.2,30.00,SE,129,0.0,4.0,89,0.00,,---,0.00,VWS V14.01,2013-01-01 17:24:00,
2013-01-01 12:29:00,33.1,30.2,29.99,NNW,328,0.0,4.0,89,0.00,,---,0.00,VWS V14.01,2013-01-01 17:29:00,
2013-01-01 12:30:00,33.3,30.1,30.00,NE,49,0.0,4.0,88,0.01,,---,0.01,VWS V14.01,2013-01-01 17:30:00,
2013-01-01 12:34:00,33.1,30.2,29.99,East,100,0.0,0.0,89,0.00,,---,0.00,VWS V14.01,2013-01-01 17:34:00,
2013-01-01 12:39:00,33.1,29.9,30.00,ENE,63,0.0,5.0,88,0.00,,---,0.00,VWS V14.01,2013-01-01 17:39:00,
2013-01-01 12:40:00,33.4,30.0,30.00,WSW,245,0.0,7.0,87,0.01,,---,0.01,VWS V14.01,2013-01-01 17:40:00,
2013-01-01 12:44:00,33.0,29.8,30.00,West,263,1.0,4.0,88,0.00,,---,0.00,VWS V14.01,2013-01-01 17:44:00,
2013-01-01 12:49:00,33.1,30.2,29.99,WSW,238,0.0,4.0,89,0.00,,---,0.00,VWS V14.01,2013-01-01 17:49:00,
2013-01-01 12:50:00,33.5,30.0,29.98,ENE,74,0.0,2.0,87,0.01,,---,0.01,VWS V14.01,2013-01-01 17:50:00,
2013-01-01 12:54:00,33.1,29.9,29.99,WSW,253,3.0,4.0,88,0.01,,---,0.01,VWS V14.01,2013-01-01 17:54:00,
2013-01-01 12:59:00,33.2,30.0,29.99,NW,304,0.0,4.0,88,0.01,,---,0.01,VWS V14.01,2013-01-01 17:59:00,
2013-01-01 13:00:00,33.5,30.0,29.98,WSW,242,0.0,3.0,87,0.01,,---,0.01,VWS V14.01,2013-01-01 18:00:00,
2013-01-01 13:04:00,33.2,30.0,29.99,ENE,78,0.0,3.0,88,0.01,,---,0.01,VWS V14.01,2013-01-01 18:04:00,
2013-01-01 13:09:00,33.4,30.2,29.99,WSW,256,1.0,3.0,88,0.01,,---,0.01,VWS V14.01,2013-01-01 18:09:00,
2013-01-01 13:10:00,33.4,29.7,29.98,NE,53,0.0,3.0,86,0.00,,---,0.01,VWS V14.01,2013-01-01 18:10:00,
2013-01-01 13:14:00,33.4,30.2,29.99,NE,42,0.0,3.0,88,0.01,,---,0.01,VWS V14.01,2013-01-01 18:14:00,
2013-01-01 13:19:00,33.4,30.2,29.99,NNE,22,0.0,5.0,88,0.01,,---,0.01,VWS V14.01,2013-01-01 18:19:00,
2013-01-01 13:20:00,33.3,29.9,29.98,West,272,0.0,7.0,87,0.00,,---,0.01,VWS V14.01,2013-01-01 18:20:00,
2013-01-01 13:24:00,33.3,30.1,29.99,SW,229,1.0,4.0,88,0.01,,---,0.01,VWS V14.01,2013-01-01 18:24:00,
2013-01-01 13:29:00,33.4,30.2,30.00,NE,49,0.0,4.0,88,0.01,,---,0.01,VWS V14.01,2013-01-01 18:29:00,
2013-01-01 13:30:00,33.4,30.0,29.99,NNW,333,0.0,1.0,87,0.00,,---,0.01,VWS V14.01,2013-01-01 18:30:00,
2013-01-01 13:34:00,33.3,29.9,30.00,ESE,106,0.0,7.0,87,0.01,,---,0.01,VWS V14.01,2013-01-01 18:34:00,
2013-01-01 13:39:00,33.4,30.0,30.00,WSW,237,0.0,7.0,87,0.01,,---,0.01,VWS V14.01,2013-01-01 18:39:00,
2013-01-01 13:40:00,33.3,29.6,29.99,ESE,105,0.0,4.0,86,0.00,,---,0.01,VWS V14.01,2013-01-01 18:40:00,
2013-01-01 13:44:00,33.5,30.0,29.99,SSW,206,0.0,2.0,87,0.01,,---,0.01,VWS V14.01,2013-01-01 18:44:00,
2013-01-01 13:49:00,33.5,30.0,29.98,SW,234,0.0,2.0,87,0.01,,---,0.01,VWS V14.01,2013-01-01 18:49:00,
2013-01-01 13:50:00,33.1,29.4,29.98,WSW,256,0.0,4.0,86,0.00,,---,0.01,VWS V14.01,2013-01-01 18:50:00,
2013-01-01 13:54:00,33.5,30.0,29.98,North,349,0.0,1.0,87,0.01,,---,0.01,VWS V14.01,2013-01-01 18:54:00,
2013-01-01 13:59:00,33.5,30.0,29.98,SW,230,0.0,3.0,87,0.01,,---,0.01,VWS V14.01,2013-01-01 18:59:00,
2013-01-01 14:00:00,32.9,29.5,29.98,West,279,0.0,5.0,87,0.00,,---,0.01,VWS V14.01,2013-01-01 19:00:00,
2013-01-01 14:04:00,33.5,29.8,29.98,South,182,0.0,2.0,86,0.00,,---,0.01,VWS V14.01,2013-01-01 19:04:00,
2013-01-01 14:09:00,33.4,29.7,29.98,NNW,336,0.0,3.0,86,0.00,,---,0.01,VWS V14.01,2013-01-01 19:09:00,
2013-01-01 14:10:00,32.9,29.2,30.00,SE,132,0.0,3.0,86,0.00,,---,0.01,VWS V14.01,2013-01-01 19:10:00,
2013-01-01 14:14:00,33.3,29.9,29.98,West,263,1.0,4.0,87,0.00,,---,0.01,VWS V14.01,2013-01-01 19:14:00,
2013-01-01 14:19:00,33.3,29.9,29.98,West,272,0.0,7.0,87,0.00,,---,0.01,VWS V14.01,2013-01-01 19:19:00,
2013-01-01 14:20:00,32.8,29.1,30.00,SSW,200,0.0,4.0,86,0.00,,---,0.01,VWS V14.01,2013-01-01 19:20:00,
2013-01-01 14:24:00,33.3,29.6,29.98,SW,227,0.0,1.0,86,0.00,,---,0.01,VWS V14.01,2013-01-01 19:24:00,
2013-01-01 14:29:00,33.4,30.0,29.99,NNW,338,0.0,1.0,87,0.00,,---,0.01,VWS V14.01,2013-01-01 19:29:00,
2013-01-01 14:30:00,32.4,29.0,30.00,NNW,329,2.0,9.0,87,0.00,,---,0.01,VWS V14.01,2013-01-01 19:30:00,
2013-01-01 14:34:00,33.3,29.6,29.99,WNW,295,3.0,4.0,86,0.00,,---,0.01,VWS V14.01,2013-01-01 19:34:00,
2013-01-01 14:39:00,33.3,29.6,29.99,ESE,105,0.0,4.0,86,0.00,,---,0.01,VWS V14.01,2013-01-01 19:39:00,
2013-01-01 14:40:00,31.9,29.0,30.00,NW,322,2.0,6.0,89,0.00,,---,0.01,VWS V14.01,2013-01-01 19:40:00,
2013-01-01 14:44:00,33.2,29.5,29.99,ESE,117,1.0,4.0,86,0.00,,---,0.01,VWS V14.01,2013-01-01 19:44:00,
2013-01-01 14:49:00,33.1,29.4,29.98,WSW,256,0.0,4.0,86,0.00,,---,0.01,VWS V14.01,2013-01-01 19:49:00,
2013-01-01 14:50:00,31.8,28.9,30.00,WSW,246,0.0,4.0,89,0.00,,---,0.01,VWS V14.01,2013-01-01 19:50:00,
2013-01-01 14:54:00,33.0,29.3,29.98,WSW,240,0.0,2.0,86,0.00,,---,0.01,VWS V14.01,2013-01-01 19:54:00,
2013-01-01 14:59:00,32.9,29.5,29.98,West,279,0.0,5.0,87,0.00,,---,0.01,VWS V14.01,2013-01-01 19:59:00,
2013-01-01 15:00:00,31.8,28.7,30.01,West,269,1.0,2.0,88,0.00,,---,0.01,VWS V14.01,2013-01-01 20:00:00,
2013-01-01 15:04:00,32.9,29.2,29.99,ESE,121,0.0,3.0,86,0.00,,---,0.01,VWS V14.01,2013-01-01 20:04:00,
2013-01-01 15:09:00,32.9,29.2,30.00,SE,132,0.0,0.0,86,0.00,,---,0.01,VWS V14.01,2013-01-01 20:09:00,
2013-01-01 15:10:00,31.8,28.7,30.01,ENE,76,0.0,3.0,88,0.00,,---,0.01,VWS V14.01,2013-01-01 20:10:00,
2013-01-01 15:14:00,32.8,29.1,30.00,West,269,1.0,3.0,86,0.00,,---,0.01,VWS V14.01,2013-01-01 20:14:00,
2013-01-01 15:19:00,32.8,29.1,30.00,South,186,0.0,0.0,86,0.00,,---,0.01,VWS V14.01,2013-01-01 20:19:00,
2013-01-01 15:20:00,31.8,28.7,30.02,SE,135,0.0,4.0,88,0.00,,---,0.01,VWS V14.01,2013-01-01 20:20:00,
2013-01-01 15:24:00,32.8,29.4,30.00,NW,326,3.0,5.0,87,0.00,,---,0.01,VWS V14.01,2013-01-01 20:24:00,
2013-01-01 15:30:00,32.4,29.0,29.99,NNW,336,3.0,3.0,87,0.00,,---,0.01,VWS V14.01,2013-01-01 20:30:00,
2013-01-01 15:34:00,32.1,29.0,30.00,WSW,244,3.0,5.0,88,0.00,,---,0.01,VWS V14.01,2013-01-01 20:34:00,
2013-01-01 15:40:00,32.0,29.1,30.00,NW,315,0.0,2.0,89,0.00,,---,0.01,VWS V14.01,2013-01-01 20:40:00,
2013-01-01 15:44:00,31.9,29.0,29.99,East,85,1.0,4.0,89,0.00,,---,0.01,VWS V14.01,2013-01-01 20:44:00,
2013-01-01 15:50:00,31.8,28.9,30.00,SW,226,0.0,1.0,89,0.00,,---,0.01,VWS V14.01,2013-01-01 20:50:00,
2013-01-01 15:55:00,31.8,28.7,30.01,WSW,256,0.0,1.0,88,0.00,,---,0.01,VWS V14.01,2013-01-01 20:55:00,
2013-01-01 16:00:00,31.8,28.7,30.02,NNW,333,0.0,3.0,88,0.00,,---,0.01,VWS V14.01,2013-01-01 21:00:00,
2013-01-01 16:05:00,31.8,28.7,30.01,WNW,284,0.0,3.0,88,0.00,,---,0.01,VWS V14.01,2013-01-01 21:05:00,
2013-01-01 16:10:00,31.8,28.7,30.01,ENE,61,0.0,0.0,88,0.00,,---,0.01,VWS V14.01,2013-01-01 21:10:00,
2013-01-01 16:15:00,31.8,28.7,30.02,WSW,257,0.0,4.0,88,0.00,,---,0.01,VWS V14.01,2013-01-01 21:15:00,
2013-01-01 16:20:00,31.8,28.7,30.02,SE,140,0.0,0.0,88,0.00,,---,0.01,VWS V14.01,2013-01-01 21:20:00,
2013-01-01 16:25:00,31.8,28.7,30.02,SW,233,2.0,3.0,88,0.00,,---,0.01,VWS V14.01,2013-01-01 21:25:00,
2013-01-01 16:30:00,31.8,28.7,30.02,SSW,192,0.0,0.0,88,0.00,,---,0.01,VWS V14.01,2013-01-01 21:30:00,
2013-01-01 16:35:00,31.8,28.7,30.02,NE,53,0.0,1.0,88,0.00,,---,0.01,VWS V14.01,2013-01-01 21:35:00,
2013-01-01 16:40:00,31.7,28.6,30.02,NNW,333,0.0,0.0,88,0.00,,---,0.01,VWS V14.01,2013-01-01 21:40:00,
2013-01-01 16:45:00,31.7,28.6,30.02,NW,313,2.0,4.0,88,0.00,,---,0.01,VWS V14.01,2013-01-01 21:45:00,
2013-01-01 16:50:00,31.7,28.6,30.02,NW,313,0.0,0.0,88,0.00,,---,0.01,VWS V14.01,2013-01-01 21:50:00,
2013-01-01 16:55:00,31.6,28.2,30.02,NNW,337,3.0,4.0,87,0.00,,---,0.01,VWS V14.01,2013-01-01 21:55:00,
2013-01-01 17:00:00,31.6,27.9,30.03,NW,311,5.0,7.0,86,0.00,,---,0.01,VWS V14.01,2013-01-01 22:00:00,
2013-01-01 17:05:00,31.5,27.8,30.04,WNW,292,3.0,7.0,86,0.00,,---,0.01,VWS V14.01,2013-01-01 22:05:00,
2013-01-01 17:10:00,31.4,27.4,30.04,NW,315,4.0,4.0,85,0.00,,---,0.01,VWS V14.01,2013-01-01 22:10:00,
2013-01-01 17:15:00,31.3,27.3,30.03,South,184,0.0,6.0,85,0.00,,---,0.01,VWS V14.01,2013-01-01 22:15:00,
2013-01-01 17:20:00,31.2,27.2,30.03,NNW,327,5.0,8.0,85,0.00,,---,0.01,VWS V14.01,2013-01-01 22:20:00,
2013-01-01 17:25:00,31.2,26.9,30.03,NW,313,5.0,9.0,84,0.00,,---,0.01,VWS V14.01,2013-01-01 22:25:00,
2013-01-01 17:30:00,31.1,27.1,30.03,NW,320,1.0,3.0,85,0.00,,---,0.01,VWS V14.01,2013-01-01 22:30:00,
2013-01-01 17:35:00,31.1,27.1,30.03,ENE,66,0.0,3.0,85,0.00,,---,0.01,VWS V14.01,2013-01-01 22:35:00,
2013-01-01 17:40:00,31.0,27.0,30.04,West,260,0.0,0.0,85,0.00,,---,0.01,VWS V14.01,2013-01-01 22:40:00,
2013-01-01 17:45:00,31.0,27.0,30.04,NW,315,0.0,2.0,85,0.00,,---,0.01,VWS V14.01,2013-01-01 22:45:00,
2013-01-01 17:50:00,30.9,26.9,30.04,NW,307,2.0,3.0,85,0.00,,---,0.01,VWS V14.01,2013-01-01 22:50:00,
2013-01-01 17:55:00,30.9,26.9,30.04,NNW,331,0.0,3.0,85,0.00,,---,0.01,VWS V14.01,2013-01-01 22:55:00,
2013-01-01 18:00:00,30.8,26.8,30.04,NW,322,1.0,1.0,85,0.00,,---,0.01,VWS V14.01,2013-01-01 23:00:00,
2013-01-01 18:05:00,30.8,26.8,30.03,NW,323,0.0,3.0,85,0.00,,---,0.01,VWS V14.01,2013-01-01 23:05:00,
2013-01-01 18:10:00,30.7,26.7,30.03,NW,311,0.0,1.0,85,0.00,,---,0.01,VWS V14.01,2013-01-01 23:10:00,
2013-01-01 18:15:00,30.7,26.7,30.03,NNW,330,0.0,1.0,85,0.00,,---,0.01,VWS V14.01,2013-01-01 23:15:00,
2013-01-01 18:20:00,30.6,26.6,30.04,NW,310,0.0,0.0,85,0.00,,---,0.01,VWS V14.01,2013-01-01 23:20:00,
2013-01-01 18:25:00,30.5,26.5,30.04,WNW,299,0.0,1.0,85,0.00,,---,0.01,VWS V14.01,2013-01-01 23:25:00,
2013-01-01 18:30:00,30.5,26.5,30.04,WNW,299,0.0,0.0,85,0.00,,---,0.01,VWS V14.01,2013-01-01 23:30:00,
2013-01-01 18:35:00,30.4,26.7,30.04,WNW,292,0.0,0.0,86,0.00,,---,0.01,VWS V14.01,2013-01-01 23:35:00,
2013-01-01 18:40:00,30.3,26.6,30.04,NNW,333,0.0,0.0,86,0.00,,---,0.01,VWS V14.01,2013-01-01 23:40:00,
2013-01-01 18:45:00,30.2,26.2,30.05,WSW,242,0.0,0.0,85,0.00,,---,0.01,VWS V14.01,2013-01-01 23:45:00,
2013-01-01 18:50:00,30.1,26.1,30.04,NW,315,0.0,2.0,85,0.00,,---,0.01,VWS V14.01,2013-01-01 23:50:00,
2013-01-01 18:55:00,30.2,26.2,30.04,West,267,0.0,3.0,85,0.00,,---,0.01,VWS V14.01,2013-01-01 23:55:00,
2013-01-01 19:00:00,30.1,26.1,30.05,ESE,118,0.0,0.0,85,0.00,,---,0.01,VWS V14.01,2013-01-02 00:00:00,
2013-01-01 19:05:00,30.0,25.8,30.06,East,90,0.0,1.0,84,0.00,,---,0.01,VWS V14.01,2013-01-02 00:05:00,
2013-01-01 19:10:00,30.0,25.8,30.05,NW,323,0.0,2.0,84,0.00,,---,0.01,VWS V14.01,2013-01-02 00:10:00,
2013-01-01 19:15:00,29.9,25.4,30.05,WNW,289,0.0,3.0,83,0.00,,---,0.01,VWS V14.01,2013-01-02 00:15:00,
2013-01-01 19:20:00,29.9,25.4,30.05,West,261,0.0,1.0,83,0.00,,---,0.01,VWS V14.01,2013-01-02 00:20:00,
2013-01-01 19:25:00,29.8,25.3,30.05,SSW,213,0.0,1.0,83,0.00,,---,0.01,VWS V14.01,2013-01-02 00:25:00,
2013-01-01 19:30:00,29.7,25.2,30.05,SW,225,0.0,0.0,83,0.00,,---,0.01,VWS V14.01,2013-01-02 00:30:00,
2013-01-01 19:35:00,29.6,24.8,30.05,WSW,244,0.0,4.0,82,0.00,,---,0.01,VWS V14.01,2013-01-02 00:35:00,
2013-01-01 19:40:00,29.6,24.8,30.05,SE,136,0.0,0.0,82,0.00,,---,0.01,VWS V14.01,2013-01-02 00:40:00,
2013-01-01 19:45:00,29.5,24.7,30.06,East,92,0.0,1.0,82,0.00,,---,0.01,VWS V14.01,2013-01-02 00:45:00,
2013-01-01 19:50:00,29.4,24.6,30.05,NNE,29,0.0,1.0,82,0.00,,---,0.01,VWS V14.01,2013-01-02 00:50:00,
2013-01-01 19:55:00,29.4,24.6,30.05,NW,309,0.0,3.0,82,0.00,,---,0.01,VWS V14.01,2013-01-02 00:55:00,
2013-01-01 20:00:00,29.4,24.6,30.05,SE,132,0.0,0.0,82,0.00,,---,0.01,VWS V14.01,2013-01-02 01:00:00,
2013-01-01 20:05:00,29.3,24.5,30.05,ENE,78,0.0,2.0,82,0.00,,---,0.01,VWS V14.01,2013-01-02 01:05:00,
2013-01-01 20:10:00,29.2,24.4,30.05,NNW,330,0.0,0.0,82,0.00,,---,0.01,VWS V14.01,2013-01-02 01:10:00,
2013-01-01 20:16:00,29.1,24.6,30.05,NW,323,0.0,0.0,83,0.00,,---,0.01,VWS V14.01,2013-01-02 01:16:00,
2013-01-01 20:20:00,28.1,24.2,30.06,NW,314,0.0,3.0,85,0.00,,---,0.01,VWS V14.01,2013-01-02 01:20:00,
2013-01-01 20:21:00,29.1,24.9,30.05,NNE,30,0.0,0.0,84,0.00,,---,0.01,VWS V14.01,2013-01-02 01:21:00,
2013-01-01 20:26:00,29.0,25.1,30.06,NNE,31,0.0,2.0,85,0.00,,---,0.01,VWS V14.01,2013-01-02 01:26:00,
2013-01-01 20:30:00,28.1,24.5,30.06,NNW,344,0.0,2.0,86,0.00,,---,0.01,VWS V14.01,2013-01-02 01:30:00,
2013-01-01 20:31:00,28.9,25.0,30.06,NNW,330,0.0,0.0,85,0.00,,---,0.01,VWS V14.01,2013-01-02 01:31:00,
2013-01-01 20:36:00,28.8,25.1,30.05,NW,313,0.0,0.0,86,0.00,,---,0.01,VWS V14.01,2013-01-02 01:36:00,
2013-01-01 20:40:00,27.9,24.0,30.06,NNW,336,1.0,4.0,85,0.00,,---,0.01,VWS V14.01,2013-01-02 01:40:00,
2013-01-01 20:41:00,28.7,25.0,30.05,SSE,166,0.0,0.0,86,0.00,,---,0.01,VWS V14.01,2013-01-02 01:41:00,
2013-01-01 20:46:00,28.6,25.0,30.05,South,186,0.0,1.0,86,0.00,,---,0.01,VWS V14.01,2013-01-02 01:46:00,
2013-01-01 20:50:00,27.8,23.9,30.06,NNW,340,2.0,5.0,85,0.00,,---,0.01,VWS V14.01,2013-01-02 01:50:00,
2013-01-01 20:51:00,28.6,25.0,30.05,South,187,0.0,0.0,86,0.00,,---,0.01,VWS V14.01,2013-01-02 01:51:00,
2013-01-01 20:56:00,28.4,24.8,30.05,NNW,340,0.0,0.0,86,0.00,,---,0.01,VWS V14.01,2013-01-02 01:56:00,
2013-01-01 21:00:00,27.7,23.8,30.06,North,351,2.0,4.0,85,0.00,,---,0.01,VWS V14.01,2013-01-02 02:00:00,
2013-01-01 21:01:00,28.3,24.4,30.06,NW,306,3.0,5.0,85,0.00,,---,0.01,VWS V14.01,2013-01-02 02:01:00,
2013-01-01 21:06:00,28.3,24.4,30.05,NNW,327,1.0,5.0,85,0.00,,---,0.01,VWS V14.01,2013-01-02 02:06:00,
2013-01-01 21:10:00,27.4,22.9,30.06,NNE,19,3.0,8.0,83,0.00,,---,0.01,VWS V14.01,2013-01-02 02:10:00,
2013-01-01 21:11:00,28.2,24.3,30.05,NNW,333,0.0,1.0,85,0.00,,---,0.01,VWS V14.01,2013-01-02 02:11:00,
2013-01-01 21:16:00,28.1,24.2,30.05,NW,313,2.0,3.0,85,0.00,,---,0.01,VWS V14.01,2013-01-02 02:16:00,
2013-01-01 21:20:00,27.2,22.7,30.08,NW,322,3.0,6.0,83,0.00,,---,0.01,VWS V14.01,2013-01-02 02:20:00,
2013-01-01 21:21:00,28.1,24.2,30.05,NNW,327,0.0,2.0,85,0.00,,---,0.01,VWS V14.01,2013-01-02 02:21:00,
2013-01-01 21:26:00,28.1,24.5,30.05,NNW,329,1.0,2.0,86,0.00,,---,0.01,VWS V14.01,2013-01-02 02:26:00,
2013-01-01 21:30:00,27.1,22.6,30.07,NW,317,1.0,3.0,83,0.00,,---,0.01,VWS V14.01,2013-01-02 02:30:00,
2013-01-01 21:31:00,28.0,24.4,30.06,NNW,333,0.0,1.0,86,0.00,,---,0.01,VWS V14.01,2013-01-02 02:31:00,
2013-01-01 21:36:00,28.0,24.4,30.06,WNW,286,0.0,4.0,86,0.00,,---,0.01,VWS V14.01,2013-01-02 02:36:00,
2013-01-01 21:40:00,27.0,22.8,30.06,NNE,13,0.0,3.0,84,0.00,,---,0.01,VWS V14.01,2013-01-02 02:40:00,
2013-01-01 21:41:00,27.9,24.0,30.06,NW,325,0.0,5.0,85,0.00,,---,0.01,VWS V14.01,2013-01-02 02:41:00,
2013-01-01 21:46:00,27.8,23.9,30.06,NW,310,1.0,5.0,85,0.00,,---,0.01,VWS V14.01,2013-01-02 02:46:00,
2013-01-01 21:50:00,26.8,22.6,30.07,NNE,12,0.0,1.0,84,0.00,,---,0.01,VWS V14.01,2013-01-02 02:50:00,
2013-01-01 21:51:00,27.7,23.8,30.06,NW,317,2.0,3.0,85,0.00,,---,0.01,VWS V14.01,2013-01-02 02:51:00,
2013-01-01 21:56:00,27.7,23.8,30.06,NNW,333,1.0,4.0,85,0.00,,---,0.01,VWS V14.01,2013-01-02 02:56:00,
2013-01-01 22:00:00,26.6,22.7,30.07,WNW,303,0.0,0.0,85,0.00,,---,0.01,VWS V14.01,2013-01-02 03:00:00,
2013-01-01 22:01:00,27.6,23.7,30.06,NW,323,0.0,2.0,85,0.00,,---,0.01,VWS V14.01,2013-01-02 03:01:00,
2013-01-01 22:06:00,27.5,23.0,30.06,WNW,292,5.0,8.0,83,0.00,,---,0.01,VWS V14.01,2013-01-02 03:06:00,
2013-01-01 22:10:00,26.4,22.5,30.07,NNW,331,1.0,3.0,85,0.00,,---,0.01,VWS V14.01,2013-01-02 03:10:00,
2013-01-01 22:11:00,27.4,22.9,30.06,NNW,342,2.0,6.0,83,0.00,,---,0.01,VWS V14.01,2013-01-02 03:11:00,
2013-01-01 22:16:00,27.3,22.8,30.07,WNW,302,0.0,6.0,83,0.00,,---,0.01,VWS V14.01,2013-01-02 03:16:00,
2013-01-01 22:20:00,26.3,22.4,30.08,NW,325,0.0,2.0,85,0.00,,---,0.01,VWS V14.01,2013-01-02 03:20:00,
2013-01-01 22:21:00,27.2,22.7,30.07,North,350,3.0,3.0,83,0.00,,---,0.01,VWS V14.01,2013-01-02 03:21:00,
2013-01-01 22:26:00,27.1,22.6,30.07,NNW,344,1.0,3.0,83,0.00,,---,0.01,VWS V14.01,2013-01-02 03:26:00,
2013-01-01 22:30:00,26.3,22.4,30.08,WNW,298,0.0,2.0,85,0.00,,---,0.01,VWS V14.01,2013-01-02 03:30:00,
2013-01-01 22:31:00,27.1,22.9,30.06,NW,304,0.0,1.0,84,0.00,,---,0.01,VWS V14.01,2013-01-02 03:31:00,
2013-01-01 22:36:00,27.0,22.8,30.07,NNW,331,1.0,3.0,84,0.00,,---,0.01,VWS V14.01,2013-01-02 03:36:00,
2013-01-01 22:40:00,26.1,22.2,30.07,NW,325,1.0,3.0,85,0.00,,---,0.01,VWS V14.01,2013-01-02 03:40:00,
2013-01-01 22:41:00,26.9,22.7,30.06,NNW,328,0.0,1.0,84,0.00,,---,0.01,VWS V14.01,2013-01-02 03:41:00,
2013-01-01 22:46:00,26.9,22.7,30.07,NNE,12,0.0,1.0,84,0.00,,---,0.01,VWS V14.01,2013-01-02 03:46:00,
2013-01-01 22:50:00,26.0,22.1,30.08,NW,304,0.0,3.0,85,0.00,,---,0.01,VWS V14.01,2013-01-02 03:50:00,
2013-01-01 22:51:00,26.7,22.5,30.07,NNE,12,0.0,0.0,84,0.00,,---,0.01,VWS V14.01,2013-01-02 03:51:00,
2013-01-01 22:56:00,26.6,22.7,30.07,North,11,0.0,0.0,85,0.00,,---,0.01,VWS V14.01,2013-01-02 03:56:00,
2013-01-01 23:00:00,25.9,22.0,30.08,NW,323,0.0,4.0,85,0.00,,---,0.01,VWS V14.01,2013-01-02 04:00:00,
2013-01-01 23:01:00,26.6,22.7,30.07,WNW,300,0.0,0.0,85,0.00,,---,0.01,VWS V14.01,2013-01-02 04:01:00,
2013-01-01 23:06:00,26.5,22.6,30.07,West,268,0.0,0.0,85,0.00,,---,0.01,VWS V14.01,2013-01-02 04:06:00,
2013-01-01 23:11:00,26.4,22.5,30.07,NW,319,0.0,2.0,85,0.00,,---,0.01,VWS V14.01,2013-01-02 04:11:00,
2013-01-01 23:16:00,26.4,22.5,30.08,NW,310,0.0,2.0,85,0.00,,---,0.01,VWS V14.01,2013-01-02 04:16:00,
2013-01-01 23:21:00,26.3,22.4,30.08,NW,324,0.0,0.0,85,0.00,,---,0.01,VWS V14.01,2013-01-02 04:21:00,
2013-01-01 23:27:00,26.3,22.1,30.07,NNW,337,0.0,2.0,84,0.00,,---,0.01,VWS V14.01,2013-01-02 04:27:00,
2013-01-01 23:32:00,26.2,22.3,30.08,SSE,155,0.0,0.0,85,0.00,,---,0.01,VWS V14.01,2013-01-02 04:32:00,
2013-01-01 23:37:00,26.2,22.3,30.07,NW,324,0.0,2.0,85,0.00,,---,0.01,VWS V14.01,2013-01-02 04:37:00,
2013-01-01 23:42:00,26.1,22.2,30.07,NW,314,0.0,1.0,85,0.00,,---,0.01,VWS V14.01,2013-01-02 04:42:00,
2013-01-01 23:47:00,26.0,22.1,30.07,NW,323,1.0,3.0,85,0.00,,---,0.01,VWS V14.01,2013-01-02 04:47:00,
2013-01-01 23:52:00,26.0,22.1,30.07,NW,315,1.0,3.0,85,0.00,,---,0.01,VWS V14.01,2013-01-02 04:52:00,
2013-01-01 23:57:00,25.9,22.0,30.08,NNW,344,2.0,4.0,85,0.00,,---,0.01,VWS V14.01,2013-01-02 04:57:00,